createdAt,value
2023-01-10T00:00:51.927Z,4.59
2023-01-10T00:01:51.914Z,4.54
2023-01-10T00:02:52.012Z,4.57
2023-01-10T00:03:51.883Z,4.43
2023-01-10T00:04:51.911Z,4.36
2023-01-10T00:05:51.864Z,4.51
2023-01-10T00:06:51.847Z,4.53
2023-01-10T00:07:51.835Z,4.49
2023-01-10T00:08:51.823Z,4.42
2023-01-10T00:09:51.815Z,4.54
2023-01-10T00:10:51.803Z,4.43
2023-01-10T00:11:51.781Z,4.44
2023-01-10T00:12:51.771Z,4.44
2023-01-10T00:13:51.757Z,4.50
2023-01-10T00:14:51.767Z,4.54
2023-01-10T00:15:51.779Z,4.46
2023-01-10T00:16:51.725Z,4.47
2023-01-10T00:17:51.700Z,4.49
2023-01-10T00:18:51.691Z,4.50
2023-01-10T00:19:51.677Z,4.47
2023-01-10T00:20:51.690Z,4.43
2023-01-10T00:21:51.652Z,4.47
2023-01-10T00:22:51.643Z,4.44
2023-01-10T00:23:51.624Z,4.51
2023-01-10T00:24:51.604Z,4.42
2023-01-10T00:25:51.599Z,4.57
2023-01-10T00:26:51.669Z,4.38
2023-01-10T00:27:51.623Z,4.43
2023-01-10T00:28:51.553Z,4.42
2023-01-10T00:29:51.542Z,4.34
2023-01-10T00:30:51.620Z,4.39
2023-01-10T00:31:51.642Z,4.31
2023-01-10T00:32:51.548Z,4.24
2023-01-10T00:33:51.542Z,4.31
2023-01-10T00:34:51.485Z,4.38
2023-01-10T00:35:51.465Z,4.38
2023-01-10T00:36:51.452Z,4.29
2023-01-10T00:37:51.446Z,4.32
2023-01-10T00:38:51.423Z,4.29
2023-01-10T00:39:51.411Z,4.31
2023-01-10T00:40:51.398Z,4.34
2023-01-10T00:41:51.379Z,4.24
2023-01-10T00:42:51.370Z,4.25
2023-01-10T00:43:51.354Z,4.26
2023-01-10T00:44:51.337Z,4.26
2023-01-10T00:45:51.374Z,4.26
2023-01-10T00:46:51.341Z,4.21
2023-01-10T00:47:51.304Z,4.25
2023-01-10T00:48:51.290Z,4.21
2023-01-10T00:49:51.283Z,4.24
2023-01-10T00:50:51.267Z,4.32
2023-01-10T00:51:51.255Z,4.26
2023-01-10T00:52:51.246Z,4.21
2023-01-10T00:53:51.225Z,4.18
2023-01-10T00:54:51.216Z,4.16
2023-01-10T00:55:51.200Z,4.14
2023-01-10T00:56:51.190Z,4.29
2023-01-10T00:57:51.165Z,4.24
2023-01-10T00:58:51.154Z,4.20
2023-01-10T00:59:51.137Z,4.18
2023-01-10T01:00:51.178Z,4.14
2023-01-10T01:01:51.281Z,4.17
2023-01-10T01:02:51.297Z,4.07
2023-01-10T01:03:51.094Z,4.17
2023-01-10T01:04:51.085Z,4.16
2023-01-10T01:05:51.073Z,4.16
2023-01-10T01:06:51.060Z,4.24
2023-01-10T01:07:51.027Z,4.13
2023-01-10T01:08:51.041Z,4.18
2023-01-10T01:09:51.002Z,4.16
2023-01-10T01:10:50.995Z,4.11
2023-01-10T01:11:50.984Z,4.21
2023-01-10T01:12:50.967Z,4.18
2023-01-10T01:13:50.958Z,4.20
2023-01-10T01:14:50.947Z,4.14
2023-01-10T01:15:50.974Z,4.14
2023-01-10T01:16:50.926Z,4.21
2023-01-10T01:17:50.905Z,4.25
2023-01-10T01:18:50.925Z,4.16
2023-01-10T01:19:50.881Z,4.10
2023-01-10T01:20:50.870Z,4.20
2023-01-10T01:21:50.849Z,4.13
2023-01-10T01:22:50.840Z,4.07
2023-01-10T01:23:50.829Z,4.14
2023-01-10T01:24:50.810Z,4.11
2023-01-10T01:25:50.798Z,4.02
2023-01-10T01:26:50.782Z,3.99
2023-01-10T01:27:50.767Z,3.89
2023-01-10T01:28:50.755Z,4.06
2023-01-10T01:29:50.750Z,3.95
2023-01-10T01:30:50.806Z,3.98
2023-01-10T01:31:50.721Z,3.92
2023-01-10T01:32:50.706Z,3.88
2023-01-10T01:33:50.691Z,3.99
2023-01-10T01:34:50.697Z,3.89
2023-01-10T01:35:50.665Z,3.96
2023-01-10T01:36:50.649Z,3.92
2023-01-10T01:37:50.639Z,3.98
2023-01-10T01:38:50.628Z,3.84
2023-01-10T01:39:50.611Z,3.90
2023-01-10T01:40:50.603Z,3.86
2023-01-10T01:41:50.600Z,4.02
2023-01-10T01:42:50.574Z,3.95
2023-01-10T01:43:50.558Z,4.02
2023-01-10T01:44:50.750Z,3.84
2023-01-10T01:45:50.535Z,3.92
2023-01-10T01:46:50.525Z,3.93
2023-01-10T01:47:50.505Z,3.96
2023-01-10T01:48:50.486Z,3.89
2023-01-10T01:49:50.472Z,3.95
2023-01-10T01:50:50.485Z,3.95
2023-01-10T01:51:50.458Z,3.93
2023-01-10T01:52:50.438Z,3.95
2023-01-10T01:53:50.444Z,4.04
2023-01-10T01:54:50.415Z,3.99
2023-01-10T01:55:50.417Z,3.95
2023-01-10T01:56:50.396Z,3.86
2023-01-10T01:57:50.376Z,4.04
2023-01-10T01:58:50.368Z,3.95
2023-01-10T01:59:50.347Z,3.93
2023-01-10T02:00:50.493Z,3.93
2023-01-10T02:01:50.406Z,4.00
2023-01-10T02:03:01.815Z,3.90
2023-01-10T02:03:51.382Z,3.86
2023-01-10T02:04:50.285Z,3.98
2023-01-10T02:05:50.274Z,3.99
2023-01-10T02:06:50.293Z,3.86
2023-01-10T02:07:50.241Z,4.06
2023-01-10T02:08:50.227Z,3.89
2023-01-10T02:09:50.207Z,3.81
2023-01-10T02:10:50.195Z,3.88
2023-01-10T02:11:50.181Z,3.92
2023-01-10T02:12:50.169Z,3.86
2023-01-10T02:13:50.166Z,4.07
2023-01-10T02:14:50.140Z,4.00
2023-01-10T02:15:50.185Z,3.95
2023-01-10T02:16:50.122Z,3.93
2023-01-10T02:17:50.117Z,3.98
2023-01-10T02:18:50.098Z,3.90
2023-01-10T02:19:50.078Z,4.04
2023-01-10T02:20:50.065Z,3.90
2023-01-10T02:21:50.052Z,3.86
2023-01-10T02:22:50.079Z,3.88
2023-01-10T02:23:50.031Z,3.96
2023-01-10T02:24:50.026Z,3.89
2023-01-10T02:25:50.000Z,3.95
2023-01-10T02:26:49.990Z,3.95
2023-01-10T02:27:49.972Z,3.95
2023-01-10T02:28:49.956Z,3.84
2023-01-10T02:29:49.961Z,3.92
2023-01-10T02:30:49.938Z,3.90
2023-01-10T02:31:49.917Z,3.93
2023-01-10T02:33:00.573Z,3.96
2023-01-10T02:33:50.940Z,3.92
2023-01-10T02:34:49.881Z,3.92
2023-01-10T02:35:49.868Z,3.90
2023-01-10T02:36:49.858Z,3.86
2023-01-10T02:37:49.836Z,3.78
2023-01-10T02:38:49.841Z,3.89
2023-01-10T02:39:49.811Z,3.92
2023-01-10T02:40:49.798Z,3.78
2023-01-10T02:41:49.801Z,3.93
2023-01-10T02:42:49.789Z,3.88
2023-01-10T02:43:49.775Z,3.86
2023-01-10T02:44:49.758Z,3.77
2023-01-10T02:45:49.741Z,3.75
2023-01-10T02:46:49.829Z,3.88
2023-01-10T02:47:49.709Z,3.82
2023-01-10T02:48:49.699Z,3.88
2023-01-10T02:49:49.686Z,3.81
2023-01-10T02:50:49.667Z,3.81
2023-01-10T02:51:49.692Z,3.88
2023-01-10T02:52:49.642Z,3.77
2023-01-10T02:53:49.624Z,3.77
2023-01-10T02:54:49.632Z,3.81
2023-01-10T02:55:49.598Z,3.84
2023-01-10T02:56:49.619Z,3.70
2023-01-10T02:57:49.575Z,3.75
2023-01-10T02:58:49.565Z,3.84
2023-01-10T02:59:49.553Z,3.77
2023-01-10T03:00:49.531Z,3.88
2023-01-10T03:01:49.618Z,3.82
2023-01-10T03:02:49.515Z,3.84
2023-01-10T03:03:49.500Z,3.89
2023-01-10T03:04:49.558Z,3.86
2023-01-10T03:05:49.469Z,3.72
2023-01-10T03:06:49.456Z,3.82
2023-01-10T03:07:49.452Z,3.86
2023-01-10T03:08:49.438Z,3.89
2023-01-10T03:09:49.431Z,3.88
2023-01-10T03:10:49.430Z,3.86
2023-01-10T03:11:49.397Z,3.93
2023-01-10T03:12:49.378Z,3.88
2023-01-10T03:13:49.363Z,3.84
2023-01-10T03:14:49.353Z,3.89
2023-01-10T03:15:49.396Z,3.93
2023-01-10T03:16:49.324Z,3.78
2023-01-10T03:17:49.313Z,3.95
2023-01-10T03:18:49.302Z,3.81
2023-01-10T03:19:49.296Z,3.77
2023-01-10T03:20:49.271Z,3.82
2023-01-10T03:21:49.260Z,3.93
2023-01-10T03:22:49.245Z,3.90
2023-01-10T03:23:49.232Z,3.90
2023-01-10T03:24:49.221Z,3.81
2023-01-10T03:25:49.209Z,3.95
2023-01-10T03:26:49.220Z,3.84
2023-01-10T03:27:49.181Z,3.84
2023-01-10T03:28:49.171Z,3.72
2023-01-10T03:29:49.151Z,3.95
2023-01-10T03:30:49.130Z,3.81
2023-01-10T03:32:14.664Z,3.78
2023-01-10T03:33:14.648Z,3.75
2023-01-10T03:34:14.635Z,3.92
2023-01-10T03:35:14.618Z,3.89
2023-01-10T03:36:14.606Z,3.78
2023-01-10T03:37:14.608Z,3.81
2023-01-10T03:38:14.589Z,3.77
2023-01-10T03:39:14.557Z,3.81
2023-01-10T03:40:14.548Z,3.84
2023-01-10T03:41:14.538Z,3.80
2023-01-10T03:42:14.552Z,3.81
2023-01-10T03:43:14.508Z,3.86
2023-01-10T03:44:14.498Z,3.82
2023-01-10T03:45:14.486Z,3.81
2023-01-10T03:46:14.488Z,3.84
2023-01-10T03:47:14.463Z,3.75
2023-01-10T03:48:14.442Z,3.84
2023-01-10T03:49:14.424Z,3.72
2023-01-10T03:50:14.416Z,3.81
2023-01-10T03:51:14.404Z,3.67
2023-01-10T03:52:14.397Z,3.77
2023-01-10T03:53:14.386Z,3.75
2023-01-10T03:54:14.364Z,3.81
2023-01-10T03:55:14.351Z,3.78
2023-01-10T03:56:14.339Z,3.78
2023-01-10T03:57:14.329Z,3.81
2023-01-10T03:58:14.339Z,3.81
2023-01-10T03:59:14.303Z,3.78
2023-01-10T04:00:14.297Z,3.80
2023-01-10T04:01:14.391Z,3.78
2023-01-10T04:02:14.253Z,3.70
2023-01-10T04:03:14.243Z,3.80
2023-01-10T04:04:14.313Z,3.80
2023-01-10T04:05:14.218Z,3.78
2023-01-10T04:06:14.217Z,3.74
2023-01-10T04:07:14.200Z,3.80
2023-01-10T04:08:14.181Z,3.64
2023-01-10T04:09:14.219Z,3.88
2023-01-10T04:10:14.161Z,3.74
2023-01-10T04:11:14.134Z,3.75
2023-01-10T04:12:14.133Z,3.80
2023-01-10T04:13:14.114Z,3.74
2023-01-10T04:14:14.130Z,3.74
2023-01-10T04:15:14.087Z,3.70
2023-01-10T04:16:14.122Z,3.77
2023-01-10T04:17:14.053Z,3.74
2023-01-10T04:18:14.047Z,3.77
2023-01-10T04:19:14.027Z,3.80
2023-01-10T04:20:14.016Z,3.71
2023-01-10T04:21:14.015Z,3.75
2023-01-10T04:22:13.988Z,3.75
2023-01-10T04:23:13.981Z,3.84
2023-01-10T04:24:13.967Z,3.82
2023-01-10T04:25:13.951Z,3.75
2023-01-10T04:26:13.945Z,3.77
2023-01-10T04:27:13.928Z,3.74
2023-01-10T04:28:13.912Z,3.74
2023-01-10T04:29:13.898Z,3.72
2023-01-10T04:30:13.906Z,3.80
2023-01-10T04:31:13.922Z,3.75
2023-01-10T04:32:13.867Z,3.77
2023-01-10T04:33:13.844Z,3.74
2023-01-10T04:34:13.844Z,3.80
2023-01-10T04:35:13.830Z,3.77
2023-01-10T04:36:13.809Z,3.72
2023-01-10T04:37:13.793Z,3.72
2023-01-10T04:38:13.780Z,3.70
2023-01-10T04:39:13.762Z,3.86
2023-01-10T04:40:13.749Z,3.72
2023-01-10T04:41:13.748Z,3.86
2023-01-10T04:42:13.734Z,3.59
2023-01-10T04:43:13.721Z,3.74
2023-01-10T04:44:13.697Z,3.77
2023-01-10T04:45:13.685Z,3.70
2023-01-10T04:46:13.700Z,3.70
2023-01-10T04:47:13.667Z,3.71
2023-01-10T04:48:13.641Z,3.71
2023-01-10T04:49:13.653Z,3.70
2023-01-10T04:50:13.616Z,3.54
2023-01-10T04:51:13.613Z,3.75
2023-01-10T04:52:13.597Z,3.64
2023-01-10T04:53:13.574Z,3.57
2023-01-10T04:54:13.575Z,3.53
2023-01-10T04:55:13.554Z,3.57
2023-01-10T04:56:13.533Z,3.62
2023-01-10T04:57:13.533Z,3.59
2023-01-10T04:58:13.510Z,3.62
2023-01-10T04:59:13.501Z,3.42
2023-01-10T05:00:13.489Z,3.59
2023-01-10T05:01:13.515Z,3.57
2023-01-10T05:02:13.598Z,3.59
2023-01-10T05:03:13.556Z,3.49
2023-01-10T05:04:13.436Z,3.53
2023-01-10T05:05:13.418Z,3.57
2023-01-10T05:06:13.411Z,3.64
2023-01-10T05:07:13.391Z,3.56
2023-01-10T05:08:13.383Z,3.59
2023-01-10T05:09:13.380Z,3.52
2023-01-10T05:10:13.366Z,3.49
2023-01-10T05:11:13.335Z,3.45
2023-01-10T05:12:13.329Z,3.53
2023-01-10T05:13:13.316Z,3.50
2023-01-10T05:14:13.293Z,3.46
2023-01-10T05:15:13.291Z,3.42
2023-01-10T05:16:13.279Z,3.50
2023-01-10T05:17:13.273Z,3.53
2023-01-10T05:18:13.267Z,3.50
2023-01-10T05:19:13.236Z,3.44
2023-01-10T05:20:13.216Z,3.52
2023-01-10T05:21:13.217Z,3.53
2023-01-10T05:22:13.208Z,3.42
2023-01-10T05:23:13.182Z,3.44
2023-01-10T05:24:13.166Z,3.50
2023-01-10T05:25:13.154Z,3.42
2023-01-10T05:26:13.140Z,3.46
2023-01-10T05:27:13.131Z,3.37
2023-01-10T05:28:13.112Z,3.49
2023-01-10T05:29:13.102Z,3.39
2023-01-10T05:30:13.083Z,3.60
2023-01-10T05:31:13.076Z,3.46
2023-01-10T05:32:13.056Z,3.39
2023-01-10T05:33:13.049Z,3.60
2023-01-10T05:34:13.057Z,3.39
2023-01-10T05:35:13.023Z,3.56
2023-01-10T05:36:13.012Z,3.46
2023-01-10T05:37:12.998Z,3.50
2023-01-10T05:38:12.977Z,3.52
2023-01-10T05:39:12.968Z,3.50
2023-01-10T05:40:12.952Z,3.57
2023-01-10T05:41:12.964Z,3.53
2023-01-10T05:42:12.936Z,3.56
2023-01-10T05:43:12.923Z,3.64
2023-01-10T05:44:14.775Z,3.57
2023-01-10T05:45:12.881Z,3.53
2023-01-10T05:46:12.927Z,3.54
2023-01-10T05:47:12.864Z,3.56
2023-01-10T05:48:12.850Z,3.56
2023-01-10T05:49:12.829Z,3.52
2023-01-10T05:50:12.854Z,3.64
2023-01-10T05:51:12.803Z,3.54
2023-01-10T05:52:12.793Z,3.57
2023-01-10T05:53:12.785Z,3.59
2023-01-10T05:54:12.771Z,3.49
2023-01-10T05:55:12.751Z,3.67
2023-01-10T05:56:12.731Z,3.57
2023-01-10T05:57:12.722Z,3.72
2023-01-10T05:58:12.708Z,3.64
2023-01-10T05:59:27.281Z,3.64
2023-01-10T06:00:13.718Z,3.59
2023-01-10T06:01:12.772Z,3.59
2023-01-10T06:02:12.797Z,3.56
2023-01-10T06:03:12.761Z,3.56
2023-01-10T06:04:12.639Z,3.67
2023-01-10T06:05:12.622Z,3.60
2023-01-10T06:06:12.629Z,3.64
2023-01-10T06:07:12.592Z,3.71
2023-01-10T06:08:12.576Z,3.67
2023-01-10T06:09:12.568Z,3.57
2023-01-10T06:10:12.550Z,3.68
2023-01-10T06:11:12.539Z,3.67
2023-01-10T06:12:12.519Z,3.53
2023-01-10T06:13:12.511Z,3.64
2023-01-10T06:14:12.506Z,3.52
2023-01-10T06:15:12.490Z,3.54
2023-01-10T06:16:12.548Z,3.44
2023-01-10T06:17:12.463Z,3.45
2023-01-10T06:18:12.736Z,3.44
2023-01-10T06:19:12.432Z,3.49
2023-01-10T06:20:12.432Z,3.31
2023-01-10T06:21:12.404Z,3.45
2023-01-10T06:22:12.414Z,3.46
2023-01-10T06:23:12.402Z,3.45
2023-01-10T06:24:12.365Z,3.52
2023-01-10T06:25:12.351Z,3.41
2023-01-10T06:26:12.337Z,3.39
2023-01-10T06:27:12.343Z,3.46
2023-01-10T06:28:12.319Z,3.39
2023-01-10T06:29:12.302Z,3.45
2023-01-10T06:30:12.308Z,3.44
2023-01-10T06:31:12.310Z,3.44
2023-01-10T06:32:12.267Z,3.49
2023-01-10T06:33:12.326Z,3.37
2023-01-10T06:34:12.244Z,3.37
2023-01-10T06:35:12.225Z,3.37
2023-01-10T06:36:12.226Z,3.44
2023-01-10T06:37:12.206Z,3.49
2023-01-10T06:38:12.199Z,3.39
2023-01-10T06:39:12.170Z,3.45
2023-01-10T06:40:12.169Z,3.56
2023-01-10T06:41:12.139Z,3.46
2023-01-10T06:42:12.127Z,3.39
2023-01-10T06:43:12.111Z,3.52
2023-01-10T06:44:12.095Z,3.44
2023-01-10T06:45:12.093Z,3.42
2023-01-10T06:46:12.145Z,3.45
2023-01-10T06:47:12.057Z,3.49
2023-01-10T06:48:12.065Z,3.42
2023-01-10T06:49:12.035Z,3.41
2023-01-10T06:50:12.035Z,3.41
2023-01-10T06:51:12.018Z,3.41
2023-01-10T06:52:12.002Z,3.44
2023-01-10T06:53:11.993Z,3.35
2023-01-10T06:54:12.001Z,3.46
2023-01-10T06:55:11.959Z,3.41
2023-01-10T06:56:11.941Z,3.37
2023-01-10T06:57:11.927Z,3.41
2023-01-10T06:58:11.911Z,3.31
2023-01-10T06:59:11.898Z,3.31
2023-01-10T07:00:11.885Z,3.34
2023-01-10T07:01:12.011Z,3.34
2023-01-10T07:02:12.019Z,3.35
2023-01-10T07:03:11.853Z,3.44
2023-01-10T07:04:11.864Z,3.37
2023-01-10T07:05:11.815Z,3.41
2023-01-10T07:06:11.805Z,3.34
2023-01-10T07:07:11.792Z,3.44
2023-01-10T07:08:11.783Z,3.35
2023-01-10T07:09:11.764Z,3.42
2023-01-10T07:10:11.775Z,3.41
2023-01-10T07:11:11.750Z,3.42
2023-01-10T07:12:11.728Z,3.39
2023-01-10T07:13:11.715Z,3.45
2023-01-10T07:14:11.701Z,3.42
2023-01-10T07:15:11.699Z,3.49
2023-01-10T07:16:11.872Z,3.52
2023-01-10T07:17:11.672Z,3.39
2023-01-10T07:18:12.830Z,3.46
2023-01-10T07:19:12.219Z,3.46
2023-01-10T07:20:11.669Z,3.45
2023-01-10T07:21:11.607Z,3.57
2023-01-10T07:22:11.591Z,3.34
2023-01-10T07:23:11.580Z,3.49
2023-01-10T07:24:11.561Z,3.52
2023-01-10T07:25:11.546Z,3.57
2023-01-10T07:26:11.569Z,3.50
2023-01-10T07:27:11.537Z,3.53
2023-01-10T07:28:11.540Z,3.50
2023-01-10T07:29:11.504Z,3.45
2023-01-10T07:30:11.483Z,3.54
2023-01-10T07:31:11.523Z,3.54
2023-01-10T07:32:11.459Z,3.53
2023-01-10T07:33:11.455Z,3.50
2023-01-10T07:34:11.437Z,3.49
2023-01-10T07:35:11.426Z,3.53
2023-01-10T07:36:11.414Z,3.62
2023-01-10T07:37:11.404Z,3.59
2023-01-10T07:38:11.392Z,3.53
2023-01-10T07:39:11.370Z,3.56
2023-01-10T07:40:11.373Z,3.53
2023-01-10T07:41:11.543Z,3.54
2023-01-10T07:42:11.351Z,3.52
2023-01-10T07:43:11.314Z,3.59
2023-01-10T07:44:11.301Z,3.64
2023-01-10T07:45:11.286Z,3.57
2023-01-10T07:46:11.334Z,3.74
2023-01-10T07:47:11.257Z,3.72
2023-01-10T07:48:11.247Z,3.62
2023-01-10T07:49:11.233Z,3.60
2023-01-10T07:50:11.231Z,3.68
2023-01-10T07:51:11.202Z,3.70
2023-01-10T07:52:11.186Z,3.74
2023-01-10T07:53:11.181Z,3.75
2023-01-10T07:54:12.958Z,3.71
2023-01-10T07:55:11.162Z,3.62
2023-01-10T07:56:11.143Z,3.74
2023-01-10T07:57:11.128Z,3.68
2023-01-10T07:58:11.141Z,3.75
2023-01-10T07:59:11.115Z,3.72
2023-01-10T08:00:11.084Z,3.72
2023-01-10T08:01:11.186Z,3.67
2023-01-10T08:02:11.196Z,3.68
2023-01-10T08:03:11.266Z,3.74
2023-01-10T08:04:11.264Z,3.71
2023-01-10T08:05:11.033Z,3.77
2023-01-10T08:06:11.014Z,3.81
2023-01-10T08:07:11.007Z,3.78
2023-01-10T08:08:10.982Z,3.84
2023-01-10T08:09:10.969Z,3.93
2023-01-10T08:10:10.950Z,3.86
2023-01-10T08:11:10.934Z,3.86
2023-01-10T08:12:10.929Z,3.90
2023-01-10T08:13:18.704Z,3.90
2023-01-10T08:14:12.013Z,3.89
2023-01-10T08:15:10.890Z,3.86
2023-01-10T08:16:10.944Z,3.92
2023-01-10T08:17:10.863Z,3.90
2023-01-10T08:18:10.852Z,3.86
2023-01-10T08:19:10.843Z,3.88
2023-01-10T08:20:10.826Z,3.90
2023-01-10T08:21:10.814Z,3.80
2023-01-10T08:22:10.799Z,3.90
2023-01-10T08:23:10.795Z,3.89
2023-01-10T08:24:10.768Z,3.92
2023-01-10T08:25:10.755Z,4.06
2023-01-10T08:26:10.757Z,3.95
2023-01-10T08:27:10.728Z,4.08
2023-01-10T08:28:10.719Z,4.21
2023-01-10T08:29:10.708Z,4.04
2023-01-10T08:30:10.711Z,4.16
2023-01-10T08:31:10.708Z,4.08
2023-01-10T08:32:10.670Z,4.10
2023-01-10T08:33:10.659Z,4.17
2023-01-10T08:34:10.641Z,4.20
2023-01-10T08:35:10.630Z,4.31
2023-01-10T08:36:10.616Z,4.16
2023-01-10T08:37:10.605Z,4.32
2023-01-10T08:38:10.586Z,4.21
2023-01-10T08:39:10.586Z,4.36
2023-01-10T08:40:10.559Z,4.18
2023-01-10T08:41:10.542Z,4.34
2023-01-10T08:42:10.559Z,4.38
2023-01-10T08:43:10.560Z,4.32
2023-01-10T08:44:10.506Z,4.24
2023-01-10T08:45:10.500Z,4.36
2023-01-10T08:46:10.768Z,4.34
2023-01-10T08:47:10.464Z,4.39
2023-01-10T08:48:10.495Z,4.50
2023-01-10T08:49:10.500Z,4.50
2023-01-10T08:50:10.687Z,4.44
2023-01-10T08:51:10.418Z,4.56
2023-01-10T08:52:10.436Z,4.47
2023-01-10T08:53:10.392Z,4.53
2023-01-10T08:54:10.376Z,4.56
2023-01-10T08:55:10.371Z,4.49
2023-01-10T08:56:10.352Z,4.38
2023-01-10T08:57:10.337Z,4.44
2023-01-10T08:58:10.325Z,4.42
2023-01-10T08:59:10.306Z,4.34
2023-01-10T09:00:10.294Z,4.53
2023-01-10T09:01:10.305Z,4.46
2023-01-10T09:02:10.343Z,4.43
2023-01-10T09:03:10.312Z,4.46
2023-01-10T09:04:10.245Z,4.49
2023-01-10T09:05:22.235Z,4.56
2023-01-10T09:06:11.249Z,4.53
2023-01-10T09:07:10.205Z,4.57
2023-01-10T09:08:10.186Z,4.68
2023-01-10T09:09:10.178Z,4.54
2023-01-10T09:10:10.160Z,4.71
2023-01-10T09:11:10.161Z,4.62
2023-01-10T09:12:10.137Z,4.59
2023-01-10T09:13:10.120Z,4.69
2023-01-10T09:14:10.109Z,4.77
2023-01-10T09:15:10.092Z,4.71
2023-01-10T09:16:10.122Z,4.68
2023-01-10T09:17:10.067Z,4.68
2023-01-10T09:18:10.101Z,4.71
2023-01-10T09:19:10.039Z,4.80
2023-01-10T09:20:10.023Z,4.69
2023-01-10T09:21:10.028Z,4.90
2023-01-10T09:22:09.998Z,4.68
2023-01-10T09:23:09.991Z,4.84
2023-01-10T09:24:10.188Z,4.90
2023-01-10T09:25:09.960Z,5.01
2023-01-10T09:26:09.941Z,4.88
2023-01-10T09:27:09.929Z,4.93
2023-01-10T09:28:09.926Z,4.97
2023-01-10T09:29:09.905Z,4.93
2023-01-10T09:30:09.892Z,5.02
2023-01-10T09:31:10.013Z,4.94
2023-01-10T09:32:09.865Z,4.93
2023-01-10T09:33:09.848Z,4.96
2023-01-10T09:34:09.893Z,4.99
2023-01-10T09:35:09.836Z,4.97
2023-01-10T09:36:10.345Z,4.99
2023-01-10T09:37:09.790Z,4.94
2023-01-10T09:38:09.785Z,5.02
2023-01-10T09:39:09.761Z,4.91
2023-01-10T09:40:09.755Z,4.97
2023-01-10T09:41:09.738Z,4.91
2023-01-10T09:42:09.727Z,4.90
2023-01-10T09:43:09.713Z,4.94
2023-01-10T09:44:09.695Z,4.88
2023-01-10T09:45:09.681Z,4.88
2023-01-10T09:46:09.848Z,4.88
2023-01-10T09:47:21.496Z,4.87
2023-01-10T09:48:10.664Z,4.99
2023-01-10T09:49:09.633Z,4.96
2023-01-10T09:50:09.663Z,4.91
2023-01-10T09:51:09.996Z,4.99
2023-01-10T09:52:09.605Z,4.83
2023-01-10T09:53:09.580Z,5.04
2023-01-10T09:54:12.825Z,5.09
2023-01-10T09:55:09.568Z,5.02
2023-01-10T09:56:09.544Z,5.01
2023-01-10T09:57:09.536Z,5.19
2023-01-10T09:58:09.540Z,5.06
2023-01-10T09:59:09.512Z,5.14
2023-01-10T10:00:09.497Z,5.24
2023-01-10T10:01:09.518Z,5.09
2023-01-10T10:02:09.465Z,5.26
2023-01-10T10:03:09.465Z,5.33
2023-01-10T10:04:09.463Z,5.42
2023-01-10T10:05:09.442Z,5.51
2023-01-10T10:06:12.340Z,5.52
2023-01-10T10:07:09.391Z,5.62
2023-01-10T10:08:09.386Z,5.48
2023-01-10T10:09:09.365Z,5.63
2023-01-10T10:10:09.360Z,5.47
2023-01-10T10:11:09.340Z,5.42
2023-01-10T10:12:09.323Z,5.52
2023-01-10T10:13:11.623Z,5.45
2023-01-10T10:14:09.301Z,5.60
2023-01-10T10:15:09.284Z,5.52
2023-01-10T10:16:09.378Z,5.41
2023-01-10T10:17:09.262Z,5.45
2023-01-10T10:18:09.247Z,5.48
2023-01-10T10:19:09.235Z,5.59
2023-01-10T10:20:09.228Z,5.45
2023-01-10T10:21:09.205Z,5.52
2023-01-10T10:22:09.214Z,5.55
2023-01-10T10:23:09.187Z,5.55
2023-01-10T10:24:09.162Z,5.62
2023-01-10T10:25:09.150Z,5.69
2023-01-10T10:26:09.137Z,5.48
2023-01-10T10:27:09.132Z,5.67
2023-01-10T10:28:09.105Z,5.60
2023-01-10T10:29:09.090Z,5.78
2023-01-10T10:30:09.078Z,5.81
2023-01-10T10:31:09.144Z,5.77
2023-01-10T10:32:09.060Z,5.84
2023-01-10T10:33:09.046Z,5.77
2023-01-10T10:34:09.033Z,5.77
2023-01-10T10:35:09.014Z,5.77
2023-01-10T10:36:09.003Z,5.88
2023-01-10T10:37:08.984Z,5.74
2023-01-10T10:38:08.998Z,5.92
2023-01-10T10:39:08.961Z,5.85
2023-01-10T10:40:08.945Z,5.93
2023-01-10T10:41:08.930Z,5.95
2023-01-10T10:42:08.917Z,5.95
2023-01-10T10:43:08.915Z,6.05
2023-01-10T10:44:08.895Z,6.06
2023-01-10T10:45:08.877Z,6.11
2023-01-10T10:46:08.959Z,6.16
2023-01-10T10:47:08.850Z,6.16
2023-01-10T10:48:08.844Z,6.14
2023-01-10T10:49:08.826Z,6.32
2023-01-10T10:50:08.825Z,6.32
2023-01-10T10:51:08.816Z,6.19
2023-01-10T10:52:08.792Z,6.30
2023-01-10T10:53:08.785Z,6.38
2023-01-10T10:54:08.781Z,6.38
2023-01-10T10:55:08.751Z,6.27
2023-01-10T10:56:08.739Z,6.43
2023-01-10T10:57:08.721Z,6.38
2023-01-10T10:58:08.713Z,6.38
2023-01-10T10:59:08.701Z,6.35
2023-01-10T11:00:08.689Z,6.40
2023-01-10T11:01:08.830Z,6.42
2023-01-10T11:02:08.693Z,6.35
2023-01-10T11:03:08.643Z,6.53
2023-01-10T11:04:08.633Z,6.60
2023-01-10T11:05:08.729Z,6.63
2023-01-10T11:06:08.608Z,6.63
2023-01-10T11:07:08.583Z,6.48
2023-01-10T11:08:08.587Z,6.58
2023-01-10T11:09:08.553Z,6.43
2023-01-10T11:10:08.599Z,6.63
2023-01-10T11:11:08.532Z,6.51
2023-01-10T11:12:08.529Z,6.54
2023-01-10T11:13:08.502Z,6.51
2023-01-10T11:14:08.503Z,6.51
2023-01-10T11:15:08.474Z,6.53
2023-01-10T11:16:08.485Z,6.55
2023-01-10T11:17:08.449Z,6.53
2023-01-10T11:18:08.459Z,6.36
2023-01-10T11:19:08.431Z,6.46
2023-01-10T11:20:08.415Z,6.50
2023-01-10T11:21:08.399Z,6.46
2023-01-10T11:22:08.391Z,6.39
2023-01-10T11:23:08.368Z,6.36
2023-01-10T11:24:08.363Z,6.57
2023-01-10T11:25:08.348Z,6.55
2023-01-10T11:26:08.358Z,6.51
2023-01-10T11:27:08.319Z,6.61
2023-01-10T11:28:11.043Z,6.73
2023-01-10T11:29:08.325Z,6.81
2023-01-10T11:30:08.288Z,6.87
2023-01-10T11:31:08.268Z,6.96
2023-01-10T11:32:08.251Z,6.89
2023-01-10T11:33:08.253Z,6.82
2023-01-10T11:34:08.221Z,7.11
2023-01-10T11:35:08.217Z,7.08
2023-01-10T11:36:08.210Z,7.30
2023-01-10T11:37:08.186Z,7.36
2023-01-10T11:38:08.174Z,7.36
2023-01-10T11:39:08.154Z,7.34
2023-01-10T11:40:08.145Z,7.24
2023-01-10T11:41:08.145Z,7.30
2023-01-10T11:42:08.143Z,7.21
2023-01-10T11:43:08.100Z,7.29
2023-01-10T11:44:08.099Z,7.27
2023-01-10T11:45:08.080Z,7.15
2023-01-10T11:46:08.111Z,7.21
2023-01-10T11:47:08.049Z,7.16
2023-01-10T11:48:08.037Z,7.11
2023-01-10T11:49:08.921Z,7.18
2023-01-10T11:50:08.013Z,7.04
2023-01-10T11:51:08.002Z,7.05
2023-01-10T11:52:07.994Z,7.07
2023-01-10T11:53:07.971Z,7.00
2023-01-10T11:54:07.975Z,6.96
2023-01-10T11:55:08.391Z,7.05
2023-01-10T11:56:07.934Z,6.99
2023-01-10T11:57:07.926Z,6.99
2023-01-10T11:58:07.933Z,6.82
2023-01-10T11:59:07.889Z,7.00
2023-01-10T12:00:07.893Z,7.05
2023-01-10T12:01:07.882Z,7.15
2023-01-10T12:02:07.884Z,7.01
2023-01-10T12:03:07.831Z,7.15
2023-01-10T12:04:07.832Z,7.27
2023-01-10T12:05:07.829Z,7.26
2023-01-10T12:06:07.799Z,7.33
2023-01-10T12:07:09.296Z,7.57
2023-01-10T12:08:07.783Z,7.62
2023-01-10T12:09:07.758Z,7.33
2023-01-10T12:10:07.740Z,7.45
2023-01-10T12:11:07.735Z,8.79
2023-01-10T12:12:07.719Z,9.89
2023-01-10T12:13:07.707Z,11.08
2023-01-10T12:14:07.709Z,12.19
2023-01-10T12:15:07.678Z,12.59
2023-01-10T12:16:07.668Z,12.36
2023-01-10T12:17:07.764Z,11.67
2023-01-10T12:18:07.630Z,12.38
2023-01-10T12:19:07.638Z,13.29
2023-01-10T12:20:07.617Z,14.09
2023-01-10T12:21:07.597Z,14.82
2023-01-10T12:22:07.599Z,15.27
2023-01-10T12:23:07.567Z,15.33
2023-01-10T12:24:07.566Z,15.37
2023-01-10T12:25:07.546Z,15.66
2023-01-10T12:26:12.276Z,16.23
2023-01-10T12:27:07.520Z,16.45
2023-01-10T12:28:07.503Z,16.87
2023-01-10T12:29:07.496Z,16.82
2023-01-10T12:30:07.517Z,16.69
2023-01-10T12:31:07.529Z,16.67
2023-01-10T12:32:07.460Z,16.63
2023-01-10T12:33:07.438Z,16.44
2023-01-10T12:34:07.424Z,16.77
2023-01-10T12:35:07.460Z,17.06
2023-01-10T12:36:07.394Z,17.00
2023-01-10T12:37:07.379Z,16.85
2023-01-10T12:38:07.368Z,16.32
2023-01-10T12:39:08.928Z,16.30
2023-01-10T12:40:07.381Z,16.30
2023-01-10T12:41:07.328Z,16.04
2023-01-10T12:42:07.319Z,15.86
2023-01-10T12:43:07.303Z,14.90
2023-01-10T12:44:07.290Z,14.78
2023-01-10T12:45:07.268Z,13.81
2023-01-10T12:46:16.775Z,13.28
2023-01-10T12:47:11.457Z,13.04
2023-01-10T12:48:07.236Z,12.62
2023-01-10T12:49:07.224Z,12.58
2023-01-10T12:50:07.217Z,12.18
2023-01-10T12:51:07.189Z,11.49
2023-01-10T12:52:07.184Z,11.09
2023-01-10T12:53:07.172Z,10.42
2023-01-10T12:54:07.153Z,10.09
2023-01-10T12:55:07.142Z,9.75
2023-01-10T12:56:07.121Z,9.27
2023-01-10T12:57:07.130Z,9.27
2023-01-10T12:58:07.099Z,8.73
2023-01-10T12:59:07.092Z,8.57
2023-01-10T13:00:07.080Z,8.45
2023-01-10T13:01:07.257Z,8.32
2023-01-10T13:02:07.168Z,8.32
2023-01-10T13:03:07.173Z,8.04
2023-01-10T13:04:07.021Z,7.91
2023-01-10T13:05:07.018Z,7.84
2023-01-10T13:06:06.997Z,7.63
2023-01-10T13:07:06.987Z,7.57
2023-01-10T13:08:06.959Z,7.30
2023-01-10T13:09:06.948Z,7.14
2023-01-10T13:10:06.944Z,7.18
2023-01-10T13:11:06.924Z,7.12
2023-01-10T13:12:06.915Z,7.21
2023-01-10T13:13:06.901Z,7.12
2023-01-10T13:14:06.921Z,7.11
2023-01-10T13:15:06.888Z,7.18
2023-01-10T13:16:06.925Z,7.15
2023-01-10T13:17:06.848Z,7.15
2023-01-10T13:18:06.855Z,7.04